createdAt,value
2019-06-01T00:01:51.358Z,101899.13
2019-06-01T00:04:20.058Z,101900.47
2019-06-01T00:06:49.028Z,101903.94
2019-06-01T00:09:17.773Z,101896.52
2019-06-01T00:11:47.525Z,101895.61
2019-06-01T00:14:16.421Z,101896.95
2019-06-01T00:16:46.060Z,101896.48
2019-06-01T00:19:15.236Z,101894.30
2019-06-01T00:21:45.439Z,101889.94
2019-06-01T00:24:14.455Z,101893.02
2019-06-01T00:26:43.714Z,101890.83
2019-06-01T00:29:12.544Z,101893.45
2019-06-01T00:31:42.958Z,101892.14
2019-06-01T00:34:12.071Z,101893.45
2019-06-01T00:36:41.511Z,101892.59
2019-06-01T00:39:10.674Z,101895.61
2019-06-01T00:41:39.381Z,101897.82
2019-06-01T00:44:08.351Z,101897.84
2019-06-01T00:46:37.099Z,101900.48
2019-06-01T00:49:06.237Z,101897.87
2019-06-01T00:51:35.252Z,101894.80
2019-06-01T00:54:04.403Z,101894.80
2019-06-01T00:56:33.234Z,101893.50
2019-06-01T00:59:02.208Z,101892.62
2019-06-01T01:01:31.204Z,101881.25
2019-06-01T01:03:59.889Z,101882.55
2019-06-01T01:06:28.948Z,101880.36
2019-06-01T01:08:57.550Z,101879.50
2019-06-01T01:11:26.459Z,101879.06
2019-06-01T01:13:55.458Z,101882.56
2019-06-01T01:16:24.150Z,101883.41
2019-06-01T01:18:53.832Z,101880.80
2019-06-01T01:21:22.640Z,101871.63
2019-06-01T01:23:52.950Z,101877.73
2019-06-01T01:26:22.167Z,101880.38
2019-06-01T01:28:51.053Z,101883.42
2019-06-01T01:31:20.052Z,101879.51
2019-06-01T01:33:49.361Z,101882.98
2019-06-01T01:36:18.600Z,101874.67
2019-06-01T01:38:48.251Z,101880.35
2019-06-01T01:41:17.265Z,101876.90
2019-06-01T01:43:45.948Z,101880.39
2019-06-01T01:46:14.965Z,101877.76
2019-06-01T01:48:43.614Z,101881.70
2019-06-01T01:51:12.289Z,101879.94
2019-06-01T01:53:40.925Z,101881.27
2019-06-01T01:56:10.504Z,101879.06
2019-06-01T01:58:39.142Z,101880.80
2019-06-01T02:01:21.293Z,101876.44
2019-06-01T02:03:38.519Z,101873.38
2019-06-01T02:06:07.602Z,101873.39
2019-06-01T02:08:36.601Z,101879.05
2019-06-01T02:11:05.597Z,101878.62
2019-06-01T02:13:34.784Z,101872.96
2019-06-01T02:16:03.678Z,101879.95
2019-06-01T02:18:32.336Z,101869.91
2019-06-01T02:21:02.698Z,101872.08
2019-06-01T02:23:31.589Z,101875.11
2019-06-01T02:26:01.166Z,101876.88
2019-06-01T02:28:30.803Z,101871.20
2019-06-01T02:31:00.191Z,101869.02
2019-06-01T02:33:29.609Z,101873.83
2019-06-01T02:36:00.660Z,101876.42
2019-06-01T02:38:29.438Z,101880.80
2019-06-01T02:40:58.965Z,101875.13
2019-06-01T02:43:28.360Z,101869.91
2019-06-01T02:45:58.119Z,101874.27
2019-06-01T02:48:27.154Z,101868.16
2019-06-01T02:50:57.439Z,101866.85
2019-06-01T02:53:26.670Z,101866.81
2019-06-01T02:55:55.818Z,101869.44
2019-06-01T02:58:24.540Z,101874.67
2019-06-01T03:01:24.698Z,101873.37
2019-06-01T03:03:57.421Z,101866.39
2019-06-01T03:06:28.456Z,101871.63
2019-06-01T03:08:59.739Z,101866.84
2019-06-01T03:11:33.268Z,101869.00
2019-06-01T03:14:02.549Z,101865.52
2019-06-01T03:16:31.549Z,101869.45
2019-06-01T03:19:01.974Z,101869.45
2019-06-01T03:21:33.027Z,101870.32
2019-06-01T03:24:06.163Z,101869.02
2019-06-01T03:26:41.226Z,101862.91
2019-06-01T03:29:13.921Z,101869.88
2019-06-01T03:31:42.542Z,101858.95
2019-06-01T03:34:12.147Z,101860.27
2019-06-01T03:36:42.043Z,101856.34
2019-06-01T03:39:12.881Z,101854.59
2019-06-01T03:41:42.837Z,101862.91
2019-06-01T03:44:12.972Z,101852.83
2019-06-01T03:46:42.215Z,101858.06
2019-06-01T03:49:11.955Z,101860.28
2019-06-01T03:51:41.219Z,101865.52
2019-06-01T03:54:10.174Z,101870.78
2019-06-01T03:56:39.799Z,101869.02
2019-06-01T03:59:09.330Z,101868.13
2019-06-01T04:01:38.319Z,101869.45
2019-06-01T04:04:07.319Z,101874.23
2019-06-01T04:06:36.613Z,101869.83
2019-06-01T04:09:07.742Z,101864.17
2019-06-01T04:11:36.710Z,101869.44
2019-06-01T04:14:06.180Z,101865.02
2019-06-01T04:16:35.455Z,101865.50
2019-06-01T04:19:04.349Z,101871.17
2019-06-01T04:21:33.335Z,101868.98
2019-06-01T04:24:02.554Z,101865.05
2019-06-01T04:26:33.089Z,101864.58
2019-06-01T04:29:02.364Z,101859.33
2019-06-01T04:31:31.976Z,101851.92
2019-06-01T04:34:00.615Z,101851.89
2019-06-01T04:36:29.688Z,101853.22
2019-06-01T04:38:58.490Z,101859.30
2019-06-01T04:41:27.435Z,101860.63
2019-06-01T04:43:56.082Z,101859.76
2019-06-01T04:46:25.168Z,101858.00
2019-06-01T04:48:54.115Z,101855.36
2019-06-01T04:51:22.756Z,101857.99
2019-06-01T04:53:51.697Z,101841.38
2019-06-01T04:56:21.302Z,101846.17
2019-06-01T04:58:49.909Z,101847.47
2019-06-01T05:01:18.878Z,101846.13
2019-06-01T05:03:47.872Z,101847.47
2019-06-01T05:06:17.272Z,101837.38
2019-06-01T05:08:46.140Z,101833.91
2019-06-01T05:11:15.705Z,101836.96
2019-06-01T05:13:44.768Z,101833.83
2019-06-01T05:16:14.848Z,101834.20
2019-06-01T05:18:43.982Z,101827.67
2019-06-01T05:21:13.098Z,101827.20
2019-06-01T05:23:42.071Z,101825.36
2019-06-01T05:26:11.089Z,101823.55
2019-06-01T05:28:40.069Z,101820.92
2019-06-01T05:31:13.243Z,101817.86
2019-06-01T05:33:39.347Z,101817.30
2019-06-01T05:36:08.406Z,101815.09
2019-06-01T05:38:37.777Z,101818.98
2019-06-01T05:41:06.774Z,101814.97
2019-06-01T05:43:35.969Z,101815.37
2019-06-01T05:46:04.962Z,101815.28
2019-06-01T05:48:34.161Z,101813.09
2019-06-01T05:51:03.359Z,101811.61
2019-06-01T05:53:32.359Z,101808.05
2019-06-01T05:56:00.985Z,101815.07
2019-06-01T05:58:30.218Z,101811.55
2019-06-01T06:00:58.878Z,101810.11
2019-06-01T06:03:39.870Z,101814.80
2019-06-01T06:05:58.545Z,101812.89
2019-06-01T06:08:27.442Z,101809.69
2019-06-01T06:10:56.438Z,101816.13
2019-06-01T06:13:25.633Z,101817.70
2019-06-01T06:15:54.634Z,101825.48
2019-06-01T06:18:23.306Z,101821.68
2019-06-01T06:20:52.202Z,101822.97
2019-06-01T06:23:22.626Z,101821.95
2019-06-01T06:25:51.657Z,101835.05
2019-06-01T06:28:20.842Z,101824.53
2019-06-01T06:30:49.460Z,101831.89
2019-06-01T06:33:19.361Z,101826.72
2019-06-01T06:35:48.317Z,101827.20
2019-06-01T06:38:17.880Z,101825.88
2019-06-01T06:40:46.634Z,101821.02
2019-06-01T06:43:20.085Z,101827.48
2019-06-01T06:45:46.350Z,101821.59
2019-06-01T06:48:15.034Z,101823.27
2019-06-01T06:50:44.335Z,101823.81
2019-06-01T06:53:25.380Z,101829.78
2019-06-01T06:55:44.489Z,101828.02
2019-06-01T06:58:13.534Z,101816.94
2019-06-01T07:00:42.476Z,101820.14
2019-06-01T07:03:11.106Z,101812.48
2019-06-01T07:05:39.719Z,101823.91
2019-06-01T07:08:08.383Z,101820.52
2019-06-01T07:10:37.403Z,101819.16
2019-06-01T07:13:06.100Z,101819.08
2019-06-01T07:15:34.773Z,101830.11
2019-06-01T07:18:03.425Z,101829.37
2019-06-01T07:20:32.407Z,101825.07
2019-06-01T07:23:01.378Z,101827.30
2019-06-01T07:25:30.652Z,101824.53
2019-06-01T07:27:59.952Z,101819.59
2019-06-01T07:30:28.679Z,101808.78
2019-06-01T07:32:57.742Z,101803.24
2019-06-01T07:35:26.737Z,101793.11
2019-06-01T07:37:55.400Z,101804.98
2019-06-01T07:40:24.820Z,101815.77
2019-06-01T07:42:54.247Z,101805.08
2019-06-01T07:45:23.013Z,101795.36
2019-06-01T07:47:51.585Z,101781.25
2019-06-01T07:50:20.457Z,101788.17
2019-06-01T07:52:49.390Z,101790.78
2019-06-01T07:55:18.372Z,101797.48
2019-06-01T07:57:47.267Z,101785.81
2019-06-01T08:00:16.444Z,101771.98
2019-06-01T08:02:45.096Z,101792.02
2019-06-01T08:05:13.937Z,101775.45
2019-06-01T08:07:42.830Z,101770.06
2019-06-01T08:10:11.601Z,101770.44
2019-06-01T08:12:40.821Z,101776.09
2019-06-01T08:15:10.015Z,101748.41
2019-06-01T08:17:39.319Z,101755.89
2019-06-01T08:20:08.467Z,101760.16
2019-06-01T08:22:37.216Z,101763.33
2019-06-01T08:25:06.416Z,101766.67
2019-06-01T08:27:35.397Z,101768.61
2019-06-01T08:30:04.651Z,101770.23
2019-06-01T08:32:33.892Z,101767.17
2019-06-01T08:35:08.406Z,101770.23
2019-06-01T08:37:33.660Z,101755.56
2019-06-01T08:40:02.844Z,101772.00
2019-06-01T08:42:31.821Z,101778.25
2019-06-01T08:45:00.455Z,101763.38
2019-06-01T08:47:29.999Z,101765.86
2019-06-01T08:49:58.936Z,101768.33
2019-06-01T08:52:28.101Z,101774.90
2019-06-01T08:54:57.096Z,101769.33
2019-06-01T08:57:26.085Z,101794.06
2019-06-01T08:59:55.785Z,101791.50
2019-06-01T09:02:24.792Z,101783.77
2019-06-01T09:04:53.409Z,101792.58
2019-06-01T09:07:22.373Z,101785.27
2019-06-01T09:09:51.008Z,101802.29
2019-06-01T09:12:20.056Z,101797.92
2019-06-01T09:14:48.720Z,101768.77
2019-06-01T09:17:18.845Z,101765.11
2019-06-01T09:19:47.868Z,101766.31
2019-06-01T09:22:16.887Z,101768.05
2019-06-01T09:24:46.154Z,101767.79
2019-06-01T09:27:15.142Z,101756.09
2019-06-01T09:29:44.754Z,101766.09
2019-06-01T09:32:13.954Z,101765.19
2019-06-01T09:34:42.948Z,101765.30
2019-06-01T09:37:11.936Z,101769.83
2019-06-01T09:39:41.228Z,101773.66
2019-06-01T09:42:09.851Z,101769.80
2019-06-01T09:44:38.826Z,101764.70
2019-06-01T09:47:07.476Z,101759.86
2019-06-01T09:49:36.087Z,101776.02
2019-06-01T09:52:04.890Z,101774.48
2019-06-01T09:54:35.110Z,101761.55
2019-06-01T09:57:04.793Z,101783.53
2019-06-01T09:59:34.011Z,101760.57
2019-06-01T10:02:03.226Z,101763.67
2019-06-01T10:04:32.819Z,101762.22
2019-06-01T10:07:01.465Z,101767.67
2019-06-01T10:09:31.525Z,101763.98
2019-06-01T10:12:00.530Z,101759.50
2019-06-01T10:14:30.090Z,101757.57
2019-06-01T10:16:59.311Z,101776.13
2019-06-01T10:19:28.212Z,101757.54
2019-06-01T10:21:56.892Z,101745.45
2019-06-01T10:24:25.549Z,101743.50
2019-06-01T10:26:54.783Z,101755.11
2019-06-01T10:29:23.710Z,101743.05
2019-06-01T10:31:52.662Z,101741.34
2019-06-01T10:34:21.792Z,101751.89
2019-06-01T10:36:50.516Z,101741.34
2019-06-01T10:39:19.870Z,101731.44
2019-06-01T10:41:48.659Z,101734.50
2019-06-01T10:44:17.697Z,101742.19
2019-06-01T10:46:46.628Z,101744.09
2019-06-01T10:49:15.820Z,101744.94
2019-06-01T10:51:44.711Z,101734.97
2019-06-01T10:54:13.729Z,101730.62
2019-06-01T10:56:42.609Z,101745.11
2019-06-01T10:59:11.562Z,101745.05
2019-06-01T11:01:40.951Z,101764.77
2019-06-01T11:04:09.757Z,101746.16
2019-06-01T11:06:44.886Z,101720.80
2019-06-01T11:09:09.495Z,101739.63
2019-06-01T11:11:39.098Z,101731.44
2019-06-01T11:14:07.916Z,101743.75
2019-06-01T11:16:37.300Z,101728.59
2019-06-01T11:19:06.114Z,101712.91
2019-06-01T11:21:35.521Z,101718.80
2019-06-01T11:24:04.484Z,101724.02
2019-06-01T11:26:33.401Z,101721.01
2019-06-01T11:29:02.386Z,101715.72
2019-06-01T11:31:31.378Z,101708.05
2019-06-01T11:34:00.278Z,101713.12
2019-06-01T11:36:29.245Z,101704.84
2019-06-01T11:38:58.154Z,101693.38
2019-06-01T11:41:27.049Z,101696.38
2019-06-01T11:43:55.743Z,101693.07
2019-06-01T11:46:25.034Z,101709.44
2019-06-01T11:48:53.926Z,101706.02
2019-06-01T11:51:22.615Z,101693.71
2019-06-01T11:53:51.668Z,101689.28
2019-06-01T11:56:20.266Z,101691.64
2019-06-01T11:58:49.203Z,101685.09
2019-06-01T12:01:18.488Z,101698.52
2019-06-01T12:03:47.116Z,101693.59
2019-06-01T12:06:15.744Z,101688.09
2019-06-01T12:08:46.214Z,101703.20
2019-06-01T12:11:15.484Z,101679.14
2019-06-01T12:13:44.598Z,101698.02
2019-06-01T12:16:13.460Z,101687.13
2019-06-01T12:18:42.626Z,101687.30
2019-06-01T12:21:11.484Z,101674.51
2019-06-01T12:23:41.443Z,101677.60
2019-06-01T12:26:10.936Z,101694.35
2019-06-01T12:28:41.478Z,101680.91
2019-06-01T12:31:11.043Z,101675.25
2019-06-01T12:33:39.927Z,101689.38
2019-06-01T12:36:09.247Z,101687.45
2019-06-01T12:38:56.064Z,101685.27
2019-06-01T12:41:27.541Z,101683.11
2019-06-01T12:44:17.384Z,101663.72
2019-06-01T12:46:46.962Z,101665.58
2019-06-01T12:49:16.001Z,101669.26
2019-06-01T12:51:44.836Z,101666.67
2019-06-01T12:54:13.691Z,101663.41
2019-06-01T12:56:42.880Z,101672.77
2019-06-01T12:59:11.720Z,101658.20
2019-06-01T13:01:41.100Z,101662.79
2019-06-01T13:04:10.056Z,101665.51
2019-06-01T13:06:38.778Z,101670.72
2019-06-01T13:09:08.904Z,101664.47
2019-06-01T13:11:37.669Z,101660.17
2019-06-01T13:14:07.989Z,101660.27
2019-06-01T13:16:36.797Z,101654.03
2019-06-01T13:19:06.077Z,101643.84
2019-06-01T13:21:34.905Z,101651.17
2019-06-01T13:24:04.217Z,101646.52
2019-06-01T13:26:33.236Z,101648.38
2019-06-01T13:29:02.329Z,101655.62
2019-06-01T13:31:31.427Z,101641.73
2019-06-01T13:34:00.574Z,101643.85
2019-06-01T13:36:29.623Z,101643.42
2019-06-01T13:38:59.143Z,101652.91
2019-06-01T13:41:27.848Z,101653.28
2019-06-01T13:43:56.660Z,101642.81
2019-06-01T13:46:25.732Z,101644.80
2019-06-01T13:48:54.924Z,101645.18
2019-06-01T13:51:23.656Z,101656.37
2019-06-01T13:53:52.915Z,101638.67
2019-06-01T13:56:21.967Z,101650.92
2019-06-01T13:58:50.765Z,101644.69
2019-06-01T14:01:19.444Z,101649.58
2019-06-01T14:03:49.382Z,101644.41
2019-06-01T14:06:18.733Z,101648.19
2019-06-01T14:08:47.453Z,101647.02
2019-06-01T14:11:16.583Z,101641.12
2019-06-01T14:13:45.564Z,101647.34
2019-06-01T14:16:14.677Z,101640.87
2019-06-01T14:18:43.371Z,101645.23
2019-06-01T14:21:12.420Z,101645.95
2019-06-01T14:23:41.443Z,101651.83
2019-06-01T14:26:10.405Z,101659.34
2019-06-01T14:28:39.929Z,101662.08
2019-06-01T14:31:08.705Z,101656.34
2019-06-01T14:33:37.607Z,101654.62
2019-06-01T14:36:06.330Z,101659.15
2019-06-01T14:38:46.690Z,101659.73
2019-06-01T14:41:06.037Z,101649.28
2019-06-01T14:43:35.238Z,101660.66
2019-06-01T14:46:04.272Z,101652.28
2019-06-01T14:48:33.235Z,101653.52
2019-06-01T14:51:02.198Z,101648.23
2019-06-01T14:53:30.954Z,101646.89
2019-06-01T14:55:59.991Z,101657.17
2019-06-01T14:58:28.788Z,101658.12
2019-06-01T15:00:58.587Z,101650.79
2019-06-01T15:03:27.614Z,101661.02
2019-06-01T15:05:56.608Z,101667.33
2019-06-01T15:08:27.008Z,101671.91
2019-06-01T15:10:57.044Z,101667.07
2019-06-01T15:13:25.981Z,101676.00
2019-06-01T15:15:55.618Z,101680.19
2019-06-01T15:18:24.535Z,101677.37
2019-06-01T15:20:53.794Z,101681.44
2019-06-01T15:23:22.782Z,101670.63
2019-06-01T15:25:52.362Z,101676.06
2019-06-01T15:28:21.550Z,101675.38
2019-06-01T15:30:50.893Z,101664.11
2019-06-01T15:33:21.368Z,101668.37
2019-06-01T15:35:52.118Z,101668.70
2019-06-01T15:38:21.019Z,101678.55
2019-06-01T15:40:49.743Z,101677.03
2019-06-01T15:43:18.767Z,101659.75
2019-06-01T15:45:47.848Z,101669.66
2019-06-01T15:48:16.565Z,101666.81
2019-06-01T15:50:45.561Z,101662.97
2019-06-01T15:53:14.931Z,101667.64
2019-06-01T15:55:44.305Z,101666.77
2019-06-01T15:58:13.734Z,101667.23
2019-06-01T16:00:42.484Z,101667.63
2019-06-01T16:03:11.133Z,101665.50
2019-06-01T16:05:39.900Z,101671.71
2019-06-01T16:08:08.995Z,101676.25
2019-06-01T16:10:37.826Z,101677.30
2019-06-01T16:13:06.516Z,101671.78
2019-06-01T16:15:35.532Z,101671.94
2019-06-01T16:18:04.438Z,101670.59
2019-06-01T16:20:33.572Z,101665.50
2019-06-01T16:23:02.606Z,101672.66
2019-06-01T16:25:34.055Z,101672.14
2019-06-01T16:28:03.906Z,101673.11
2019-06-01T16:30:37.429Z,101677.59
2019-06-01T16:33:06.226Z,101674.37
2019-06-01T16:35:35.192Z,101670.66
2019-06-01T16:38:05.729Z,101668.44
2019-06-01T16:40:35.258Z,101676.14
2019-06-01T16:43:05.589Z,101678.33
2019-06-01T16:45:34.865Z,101677.97
2019-06-01T16:48:03.843Z,101672.83
2019-06-01T16:50:32.560Z,101676.07
2019-06-01T16:53:02.123Z,101681.45
2019-06-01T16:55:31.636Z,101679.68
2019-06-01T16:58:01.211Z,101683.73
2019-06-01T17:00:30.455Z,101677.43
2019-06-01T17:02:59.159Z,101680.34
2019-06-01T17:05:27.809Z,101674.17
2019-06-01T17:07:56.828Z,101674.45
2019-06-01T17:10:26.678Z,101670.75
2019-06-01T17:12:56.828Z,101668.61
2019-06-01T17:15:26.472Z,101673.81
2019-06-01T17:17:56.881Z,101667.98
2019-06-01T17:20:51.508Z,101669.45
2019-06-01T17:23:26.758Z,101675.94
2019-06-01T17:25:50.620Z,101681.41
2019-06-01T17:28:19.727Z,101679.58
2019-06-01T17:30:48.988Z,101684.75
2019-06-01T17:33:18.926Z,101683.58
2019-06-01T17:35:47.923Z,101680.84
2019-06-01T17:38:16.576Z,101671.46
2019-06-01T17:40:45.902Z,101674.86
2019-06-01T17:43:15.111Z,101680.12
2019-06-01T17:45:43.921Z,101677.68
2019-06-01T17:48:25.213Z,101683.88
2019-06-01T17:50:43.153Z,101684.33
2019-06-01T17:53:13.021Z,101687.55
2019-06-01T17:55:42.632Z,101685.02
2019-06-01T17:58:12.512Z,101685.11
2019-06-01T18:00:42.095Z,101680.71
2019-06-01T18:03:12.047Z,101689.31
2019-06-01T18:05:41.232Z,101686.86
2019-06-01T18:08:10.435Z,101681.41
2019-06-01T18:10:52.398Z,101692.54
2019-06-01T18:13:10.576Z,101681.44
2019-06-01T18:15:39.793Z,101683.73
2019-06-01T18:18:10.360Z,101679.48
2019-06-01T18:20:39.319Z,101677.05
2019-06-01T18:23:10.124Z,101683.46
2019-06-01T18:25:38.891Z,101678.06
2019-06-01T18:28:14.651Z,101677.37
2019-06-01T18:30:38.610Z,101679.69
2019-06-01T18:33:07.325Z,101680.10
2019-06-01T18:35:36.851Z,101686.49
2019-06-01T18:38:05.973Z,101682.88
2019-06-01T18:40:34.967Z,101679.97
2019-06-01T18:43:07.842Z,101682.55
2019-06-01T18:45:37.199Z,101685.52
2019-06-01T18:48:06.239Z,101684.20
2019-06-01T18:50:35.863Z,101679.33
2019-06-01T18:53:06.033Z,101685.80
2019-06-01T18:55:35.884Z,101687.34
2019-06-01T18:58:06.393Z,101688.09
2019-06-01T19:00:39.342Z,101680.11
2019-06-01T19:03:07.235Z,101685.36
2019-06-01T19:05:36.210Z,101682.31
2019-06-01T19:08:05.152Z,101685.52
2019-06-01T19:10:34.217Z,101682.70
2019-06-01T19:13:02.881Z,101689.20
2019-06-01T19:15:31.828Z,101687.03
2019-06-01T19:18:00.811Z,101678.70
2019-06-01T19:20:33.184Z,101679.55
2019-06-01T19:23:00.643Z,101680.00
2019-06-01T19:25:29.328Z,101676.95
2019-06-01T19:27:58.009Z,101677.37
2019-06-01T19:30:37.916Z,101675.58
2019-06-01T19:33:11.015Z,101672.53
2019-06-01T19:35:38.943Z,101679.10
2019-06-01T19:38:08.947Z,101677.02
2019-06-01T19:40:39.397Z,101687.45
2019-06-01T19:43:09.440Z,101691.05
2019-06-01T19:45:38.206Z,101688.02
2019-06-01T19:48:08.232Z,101696.07
2019-06-01T19:50:37.105Z,101698.30
2019-06-01T19:53:06.099Z,101691.72
2019-06-01T19:55:35.395Z,101694.37
2019-06-01T19:58:04.354Z,101694.89
2019-06-01T20:00:33.567Z,101698.05
2019-06-01T20:03:02.845Z,101693.36
2019-06-01T20:05:32.282Z,101690.91
2019-06-01T20:08:01.310Z,101694.37
2019-06-01T20:10:30.491Z,101695.17
2019-06-01T20:12:59.552Z,101702.59
2019-06-01T20:15:29.410Z,101700.48
2019-06-01T20:17:58.927Z,101701.80
2019-06-01T20:20:27.751Z,101706.26
2019-06-01T20:22:57.213Z,101711.47
2019-06-01T20:25:26.206Z,101717.56
2019-06-01T20:27:54.998Z,101718.86
2019-06-01T20:30:24.293Z,101714.91
2019-06-01T20:32:53.017Z,101709.32
2019-06-01T20:35:22.196Z,101718.08
2019-06-01T20:37:51.099Z,101709.77
2019-06-01T20:40:20.465Z,101711.51
2019-06-01T20:42:49.228Z,101713.25
2019-06-01T20:45:18.783Z,101711.91
2019-06-01T20:47:47.646Z,101718.47
2019-06-01T20:50:18.683Z,101721.14
2019-06-01T20:52:47.729Z,101715.53
2019-06-01T20:55:19.134Z,101716.83
2019-06-01T20:57:48.089Z,101713.38
2019-06-01T21:00:17.777Z,101711.16
2019-06-01T21:02:46.794Z,101707.69
2019-06-01T21:05:15.863Z,101702.52
2019-06-01T21:07:44.930Z,101700.78
2019-06-01T21:10:14.423Z,101697.76
2019-06-01T21:12:45.649Z,101699.06
2019-06-01T21:15:15.084Z,101702.14
2019-06-01T21:17:44.577Z,101700.84
2019-06-01T21:20:18.780Z,101698.66
2019-06-01T21:22:44.306Z,101704.77
2019-06-01T21:25:14.743Z,101709.14
2019-06-01T21:27:44.233Z,101705.63
2019-06-01T21:30:14.738Z,101710.04
2019-06-01T21:32:44.178Z,101710.48
2019-06-01T21:35:13.166Z,101711.78
2019-06-01T21:37:42.787Z,101717.45
2019-06-01T21:40:11.687Z,101718.77
2019-06-01T21:42:40.851Z,101715.72
2019-06-01T21:45:10.885Z,101711.34
2019-06-01T21:47:40.392Z,101720.52
2019-06-01T21:50:10.000Z,101723.58
2019-06-01T21:52:39.142Z,101718.34
2019-06-01T21:55:08.675Z,101727.49
2019-06-01T21:57:37.680Z,101728.37
2019-06-01T22:00:08.384Z,101727.49
2019-06-01T22:02:37.271Z,101728.82
2019-06-01T22:05:06.574Z,101734.04
2019-06-01T22:07:35.821Z,101727.48
2019-06-01T22:10:05.171Z,101731.81
2019-06-01T22:12:34.129Z,101729.64
2019-06-01T22:15:03.030Z,101720.45
2019-06-01T22:17:32.015Z,101717.84
2019-06-01T22:20:00.649Z,101715.22
2019-06-01T22:22:29.304Z,101717.41
2019-06-01T22:24:58.605Z,101715.22
2019-06-01T22:27:28.515Z,101717.41
2019-06-01T22:29:57.484Z,101712.16
2019-06-01T22:32:29.533Z,101711.72
2019-06-01T22:34:56.821Z,101710.42
2019-06-01T22:37:25.867Z,101710.83
2019-06-01T22:39:54.447Z,101716.94
2019-06-01T22:42:24.297Z,101725.67
2019-06-01T22:44:53.010Z,101723.45
2019-06-01T22:47:22.475Z,101723.89
2019-06-01T22:49:51.291Z,101723.45
2019-06-01T22:52:20.980Z,101722.14
2019-06-01T22:54:49.807Z,101725.64
2019-06-01T22:57:18.443Z,101723.89
2019-06-01T22:59:47.356Z,101713.89
2019-06-01T23:02:16.248Z,101710.42
2019-06-01T23:04:45.154Z,101702.55
2019-06-01T23:07:13.775Z,101708.22
2019-06-01T23:09:42.394Z,101709.98
2019-06-01T23:12:11.112Z,101716.53
2019-06-01T23:14:40.708Z,101710.42
2019-06-01T23:17:10.003Z,101705.62
2019-06-01T23:19:39.099Z,101712.16
2019-06-01T23:22:08.178Z,101711.73
2019-06-01T23:24:36.789Z,101717.41
2019-06-01T23:27:05.581Z,101709.55
2019-06-01T23:29:34.977Z,101709.12
2019-06-01T23:32:03.880Z,101703.86
2019-06-01T23:34:32.832Z,101713.02
2019-06-01T23:37:01.593Z,101700.78
2019-06-01T23:39:30.847Z,101698.59
2019-06-01T23:41:59.947Z,101697.30
2019-06-01T23:44:31.911Z,101690.72
2019-06-01T23:46:59.566Z,101689.41
2019-06-01T23:49:29.243Z,101683.30
2019-06-01T23:51:58.378Z,101675.97
2019-06-01T23:54:27.858Z,101674.70
2019-06-01T23:56:56.788Z,101681.24
2019-06-01T23:59:27.942Z,101682.95
